Time;durP1;ratioP1;P1;durP2;ratioP2;P2;SDS_P1;SDS_P2;PMS_P1;PMS_P2;Temp;Humidity;BMP_temperature;BMP_pressure;BME280_temperature;BME280_humidity;BME280_pressure;Samples;Min_cycle;Max_cycle;Signal;HPM_P1;HPM_P2
2021/03/05 00:02:06;;;;;;;2.92;1.70;;;;;;;;;;5049343;28;20180;-75
2021/03/05 00:04:32;;;;;;;5.13;1.83;;;;;;;;;;5042211;28;20702;-75
2021/03/05 00:06:58;;;;;;;6.80;1.75;;;;;;;;;;5043529;28;20235;-74
2021/03/05 00:09:24;;;;;;;2.35;1.60;;;;;;;;;;5064561;28;20219;-74
2021/03/05 00:11:50;;;;;;;3.40;1.67;;;;;;;;;;5049799;28;20603;-75
2021/03/05 00:14:16;;;;;;;2.80;1.60;;;;;;;;;;5049234;28;20227;-74
2021/03/05 00:16:42;;;;;;;5.82;1.63;;;;;;;;;;5064341;28;20206;-74
2021/03/05 00:19:08;;;;;;;3.80;1.98;;;;;;;;;;5056259;28;20229;-74
2021/03/05 00:21:34;;;;;;;11.23;1.70;;;;;;;;;;5058888;28;20221;-74
2021/03/05 00:24:00;;;;;;;4.30;1.60;;;;;;;;;;5059251;28;20800;-73
2021/03/05 00:26:26;;;;;;;2.80;1.60;;;;;;;;;;5044727;28;20200;-74
2021/03/05 00:28:52;;;;;;;4.60;2.03;;;;;;;;;;5048128;28;20173;-75
2021/03/05 00:31:18;;;;;;;3.05;1.58;;;;;;;;;;5049393;28;20207;-75
2021/03/05 00:33:44;;;;;;;2.63;1.40;;;;;;;;;;5048867;28;20843;-74
2021/03/05 00:36:10;;;;;;;4.70;1.65;;;;;;;;;;5048949;28;20192;-74
2021/03/05 00:38:36;;;;;;;3.15;1.65;;;;;;;;;;5049408;28;20189;-74
2021/03/05 00:41:02;;;;;;;2.92;1.65;;;;;;;;;;5049012;28;20176;-75
2021/03/05 00:43:28;;;;;;;4.15;1.70;;;;;;;;;;5048788;28;20200;-75
2021/03/05 00:45:54;;;;;;;3.05;1.80;;;;;;;;;;5049081;28;20295;-75
2021/03/05 00:48:20;;;;;;;4.45;1.85;;;;;;;;;;5049191;28;20181;-75
2021/03/05 00:50:46;;;;;;;5.95;1.90;;;;;;;;;;5049257;28;20209;-75
2021/03/05 00:53:12;;;;;;;8.23;2.15;;;;;;;;;;5048806;28;20197;-75
2021/03/05 00:55:38;;;;;;;4.65;1.73;;;;;;;;;;5049156;28;20209;-75
2021/03/05 00:58:04;;;;;;;3.40;1.75;;;;;;;;;;5049475;28;20192;-75
2021/03/05 01:00:30;;;;;;;4.20;1.95;;;;;;;;;;5049154;28;20184;-75
2021/03/05 01:02:57;;;;;;;8.10;2.38;;;;;;;;;;5047280;28;20213;-74
2021/03/05 01:05:23;;;;;;;4.85;1.80;;;;;;;;;;5052201;28;20211;-75
2021/03/05 01:07:49;;;;;;;5.45;1.95;;;;;;;;;;5064016;28;20200;-74
2021/03/05 01:10:15;;;;;;;4.15;1.88;;;;;;;;;;5073000;28;20230;-75
2021/03/05 01:12:41;;;;;;;3.50;1.88;;;;;;;;;;5054212;28;20200;-74
2021/03/05 01:15:08;;;;;;;4.95;2.40;;;;;;;;;;5056238;28;20525;-73
2021/03/05 01:17:35;;;;;;;6.20;2.10;;;;;;;;;;5057026;28;20176;-74
2021/03/05 01:20:01;;;;;;;5.32;2.20;;;;;;;;;;5056416;28;20195;-75
2021/03/05 01:22:27;;;;;;;6.72;2.70;;;;;;;;;;5056828;28;20227;-73
2021/03/05 01:24:53;;;;;;;7.25;2.50;;;;;;;;;;5056522;28;20181;-74
2021/03/05 01:27:19;;;;;;;5.00;2.00;;;;;;;;;;5069223;28;20187;-75
2021/03/05 01:29:45;;;;;;;3.50;1.70;;;;;;;;;;5064522;28;20530;-73
2021/03/05 01:32:11;;;;;;;4.53;2.13;;;;;;;;;;5056367;28;20173;-71
2021/03/05 01:34:37;;;;;;;6.65;2.10;;;;;;;;;;5075991;28;20176;-73
2021/03/05 01:37:03;;;;;;;4.03;2.00;;;;;;;;;;5075659;28;20176;-75
2021/03/05 01:39:29;;;;;;;3.92;2.10;;;;;;;;;;5075002;28;20271;-75
2021/03/05 01:41:55;;;;;;;4.43;2.25;;;;;;;;;;5076270;28;20176;-73
2021/03/05 01:44:21;;;;;;;6.93;2.38;;;;;;;;;;5065990;28;20189;-72
2021/03/05 01:46:47;;;;;;;5.05;2.10;;;;;;;;;;5056497;28;20196;-73
2021/03/05 01:49:14;;;;;;;6.13;2.20;;;;;;;;;;5056381;28;20181;-73
2021/03/05 01:51:40;;;;;;;4.95;1.85;;;;;;;;;;5056441;28;20225;-74
2021/03/05 01:54:06;;;;;;;7.25;2.65;;;;;;;;;;5055581;28;20558;-75
2021/03/05 01:56:37;;;;;;;7.25;1.85;;;;;;;;;;5056107;28;20184;-75
2021/03/05 01:59:05;;;;;;;3.13;1.92;;;;;;;;;;5056189;28;20189;-75
2021/03/05 02:01:32;;;;;;;4.20;1.98;;;;;;;;;;5055826;28;20173;-74
2021/03/05 02:03:58;;;;;;;6.00;2.30;;;;;;;;;;5055663;28;20193;-74
2021/03/05 02:06:24;;;;;;;5.25;2.10;;;;;;;;;;5054716;28;20212;-74
2021/03/05 02:08:50;;;;;;;7.03;2.40;;;;;;;;;;5052714;28;20172;-73
2021/03/05 02:11:17;;;;;;;3.72;2.13;;;;;;;;;;5060603;28;20209;-73
2021/03/05 02:13:43;;;;;;;3.80;1.75;;;;;;;;;;5070530;28;20273;-73
2021/03/05 02:16:13;;;;;;;8.35;2.72;;;;;;;;;;5065803;28;20267;-73
2021/03/05 02:18:39;;;;;;;3.45;2.30;;;;;;;;;;5072825;28;20188;-73
2021/03/05 02:21:11;;;;;;;3.88;1.90;;;;;;;;;;5049641;28;20184;-73
2021/03/05 02:23:40;;;;;;;6.75;2.05;;;;;;;;;;5048982;28;20581;-74
2021/03/05 02:26:15;;;;;;;8.23;2.30;;;;;;;;;;5056501;28;20177;-73
2021/03/05 02:28:41;;;;;;;3.92;2.08;;;;;;;;;;5063902;28;20177;-73
2021/03/05 02:31:25;;;;;;;8.52;2.05;;;;;;;;;;5052256;28;20172;-72
2021/03/05 02:34:08;;;;;;;5.97;1.98;;;;;;;;;;5064198;28;20222;-73
2021/03/05 02:36:55;;;;;;;4.50;2.30;;;;;;;;;;5055828;28;20185;-74
2021/03/05 02:39:23;;;;;;;2.80;1.80;;;;;;;;;;5066830;28;20210;-74
2021/03/05 02:41:53;;;;;;;5.18;2.15;;;;;;;;;;5074397;28;20188;-73
2021/03/05 02:44:27;;;;;;;5.15;2.10;;;;;;;;;;5045333;28;20702;-74
2021/03/05 02:46:57;;;;;;;7.88;2.42;;;;;;;;;;5053210;28;20243;-75
2021/03/05 02:49:24;;;;;;;5.43;2.28;;;;;;;;;;5054245;28;20252;-75
2021/03/05 02:51:53;;;;;;;6.22;1.90;;;;;;;;;;5046631;28;20189;-75
2021/03/05 02:54:19;;;;;;;3.38;1.80;;;;;;;;;;5055164;28;20636;-73
2021/03/05 02:56:46;;;;;;;4.78;1.90;;;;;;;;;;5053956;28;20483;-74
2021/03/05 02:59:13;;;;;;;4.57;1.70;;;;;;;;;;5053812;28;20177;-74
2021/03/05 03:01:44;;;;;;;4.45;1.80;;;;;;;;;;5053791;28;20446;-74
2021/03/05 03:04:10;;;;;;;4.82;1.95;;;;;;;;;;5054073;28;20275;-74
2021/03/05 03:06:36;;;;;;;4.25;1.70;;;;;;;;;;5034365;28;556862;-74
2021/03/05 03:09:03;;;;;;;4.20;2.05;;;;;;;;;;5054038;28;20184;-74
2021/03/05 03:11:29;;;;;;;5.10;1.80;;;;;;;;;;5053144;28;20173;-74
2021/03/05 03:13:56;;;;;;;4.18;1.95;;;;;;;;;;5050502;28;20278;-74
2021/03/05 03:16:22;;;;;;;7.40;2.03;;;;;;;;;;5049262;28;20221;-74
2021/03/05 03:18:48;;;;;;;6.38;2.17;;;;;;;;;;5059881;28;20184;-73
2021/03/05 03:21:15;;;;;;;5.90;2.00;;;;;;;;;;5058300;28;20192;-73
2021/03/05 03:23:41;;;;;;;7.32;2.10;;;;;;;;;;5049679;28;20523;-73
2021/03/05 03:26:08;;;;;;;9.38;2.20;;;;;;;;;;5057023;28;20234;-75
2021/03/05 03:28:34;;;;;;;6.47;1.80;;;;;;;;;;5072182;28;20172;-74
2021/03/05 03:31:03;;;;;;;4.40;1.88;;;;;;;;;;5045407;28;20173;-73
2021/03/05 03:33:29;;;;;;;4.38;1.95;;;;;;;;;;5057875;28;20194;-74
2021/03/05 03:35:55;;;;;;;5.60;1.80;;;;;;;;;;5058967;28;20195;-73
2021/03/05 03:38:21;;;;;;;3.53;2.20;;;;;;;;;;5056184;28;20607;-74
2021/03/05 03:40:47;;;;;;;7.28;2.13;;;;;;;;;;5069968;28;20184;-75
2021/03/05 03:43:13;;;;;;;3.63;2.20;;;;;;;;;;5062358;28;20204;-74
2021/03/05 03:45:40;;;;;;;3.17;1.70;;;;;;;;;;5053065;28;20172;-74
2021/03/05 03:48:06;;;;;;;5.05;2.05;;;;;;;;;;5051981;28;20205;-74
2021/03/05 03:50:39;;;;;;;4.85;1.92;;;;;;;;;;5054067;28;20178;-74
2021/03/05 03:53:15;;;;;;;6.53;2.22;;;;;;;;;;5047283;28;20547;-74
2021/03/05 03:55:42;;;;;;;4.07;2.20;;;;;;;;;;5057396;28;20181;-74
2021/03/05 03:58:09;;;;;;;5.75;2.20;;;;;;;;;;5053133;28;20649;-74
2021/03/05 04:00:36;;;;;;;8.35;2.25;;;;;;;;;;5053203;28;20248;-74
2021/03/05 04:03:03;;;;;;;5.53;2.30;;;;;;;;;;5053166;28;20220;-74
2021/03/05 04:05:31;;;;;;;4.35;2.25;;;;;;;;;;5051390;28;20276;-74
2021/03/05 04:07:57;;;;;;;6.00;2.10;;;;;;;;;;5040412;28;20197;-74
2021/03/05 04:10:24;;;;;;;5.05;2.50;;;;;;;;;;5061698;28;20698;-74
2021/03/05 04:12:50;;;;;;;9.48;2.70;;;;;;;;;;5059850;28;20242;-74
2021/03/05 04:15:17;;;;;;;6.95;2.30;;;;;;;;;;5060254;28;20601;-74
2021/03/05 04:17:43;;;;;;;4.35;2.10;;;;;;;;;;5053519;28;20169;-73
2021/03/05 04:20:13;;;;;;;4.18;2.45;;;;;;;;;;5052488;28;20487;-75
2021/03/05 04:22:40;;;;;;;7.55;3.10;;;;;;;;;;5053637;28;20286;-73
2021/03/05 04:25:06;;;;;;;3.70;2.10;;;;;;;;;;5052683;28;20180;-73
2021/03/05 04:27:32;;;;;;;13.25;3.40;;;;;;;;;;5065645;28;20561;-75
2021/03/05 04:29:58;;;;;;;5.38;3.10;;;;;;;;;;5059445;28;20173;-75
2021/03/05 04:32:25;;;;;;;6.43;2.53;;;;;;;;;;5048353;28;20169;-73
2021/03/05 04:34:51;;;;;;;11.35;3.10;;;;;;;;;;5052877;28;20212;-74
2021/03/05 04:37:17;;;;;;;6.70;2.50;;;;;;;;;;5052346;28;20188;-75
2021/03/05 04:39:43;;;;;;;8.43;3.00;;;;;;;;;;5050297;28;20195;-74
2021/03/05 04:42:09;;;;;;;8.25;3.50;;;;;;;;;;5053512;28;20186;-75
2021/03/05 04:44:35;;;;;;;4.57;2.80;;;;;;;;;;5062256;28;20173;-75
2021/03/05 04:47:01;;;;;;;4.78;2.95;;;;;;;;;;5052487;28;20702;-75
2021/03/05 04:49:27;;;;;;;5.28;2.45;;;;;;;;;;5052357;28;20665;-75
2021/03/05 04:51:53;;;;;;;5.13;2.88;;;;;;;;;;5052928;28;20558;-74
2021/03/05 04:54:19;;;;;;;7.45;2.95;;;;;;;;;;5051754;28;20280;-75
2021/03/05 04:56:45;;;;;;;5.57;2.90;;;;;;;;;;5053085;28;20177;-73
2021/03/05 04:59:11;;;;;;;4.38;3.00;;;;;;;;;;5052129;28;20188;-74
2021/03/05 05:01:37;;;;;;;9.77;3.72;;;;;;;;;;5051990;28;20185;-75
2021/03/05 05:04:03;;;;;;;5.45;3.55;;;;;;;;;;5059629;28;20534;-74
2021/03/05 05:06:29;;;;;;;3.92;2.78;;;;;;;;;;5053803;28;20217;-75
2021/03/05 05:08:55;;;;;;;4.93;2.90;;;;;;;;;;5073374;28;20226;-74
2021/03/05 05:11:21;;;;;;;4.43;2.80;;;;;;;;;;5060689;28;20713;-75
2021/03/05 05:13:47;;;;;;;5.72;3.13;;;;;;;;;;5048637;28;20197;-74
2021/03/05 05:16:13;;;;;;;10.50;3.65;;;;;;;;;;5052699;28;20162;-74
2021/03/05 05:18:39;;;;;;;5.32;3.05;;;;;;;;;;5046855;28;20172;-72
2021/03/05 05:21:05;;;;;;;6.32;3.67;;;;;;;;;;5062252;28;20620;-74
2021/03/05 05:23:31;;;;;;;9.75;3.95;;;;;;;;;;5051676;28;20209;-74
2021/03/05 05:25:57;;;;;;;7.10;3.53;;;;;;;;;;5045194;28;20186;-74
2021/03/05 05:28:23;;;;;;;7.97;3.33;;;;;;;;;;5071969;28;20184;-75
2021/03/05 05:30:49;;;;;;;5.80;3.30;;;;;;;;;;5052104;28;20660;-74
2021/03/05 05:33:17;;;;;;;8.48;3.95;;;;;;;;;;5041313;28;20201;-75
2021/03/05 05:35:43;;;;;;;9.05;3.53;;;;;;;;;;5050191;28;20182;-75
2021/03/05 05:38:10;;;;;;;5.80;3.40;;;;;;;;;;5052687;28;20169;-74
2021/03/05 05:40:36;;;;;;;5.43;3.90;;;;;;;;;;5052568;28;20180;-75
2021/03/05 05:43:02;;;;;;;5.35;3.45;;;;;;;;;;5051887;28;20202;-75
2021/03/05 05:45:28;;;;;;;5.15;3.45;;;;;;;;;;5051713;28;20184;-75
2021/03/05 05:47:57;;;;;;;5.70;4.15;;;;;;;;;;5052267;28;20278;-73
2021/03/05 05:50:24;;;;;;;9.27;4.28;;;;;;;;;;5044782;28;20520;-73
2021/03/05 05:52:55;;;;;;;4.72;3.30;;;;;;;;;;5052729;28;20231;-73
2021/03/05 05:55:21;;;;;;;6.10;3.90;;;;;;;;;;5052462;28;20234;-73
2021/03/05 05:57:47;;;;;;;8.40;4.05;;;;;;;;;;5051968;28;20220;-74
2021/03/05 06:00:14;;;;;;;8.18;3.80;;;;;;;;;;5054700;28;20177;-72
2021/03/05 06:02:44;;;;;;;9.43;4.07;;;;;;;;;;5049482;28;20206;-73
2021/03/05 06:05:12;;;;;;;6.35;3.70;;;;;;;;;;5066362;28;20200;-74
2021/03/05 06:07:38;;;;;;;9.93;4.13;;;;;;;;;;5056679;28;20203;-74
2021/03/05 06:10:05;;;;;;;5.72;3.50;;;;;;;;;;5070991;28;20176;-75
2021/03/05 06:12:31;;;;;;;8.85;4.20;;;;;;;;;;5056322;28;20751;-74
2021/03/05 06:14:57;;;;;;;7.25;3.90;;;;;;;;;;5064739;28;20205;-74
2021/03/05 06:17:39;;;;;;;8.00;3.65;;;;;;;;;;5056002;28;20248;-74
2021/03/05 06:20:06;;;;;;;21.70;4.25;;;;;;;;;;5053348;28;20177;-74
2021/03/05 06:22:32;;;;;;;10.60;4.22;;;;;;;;;;5067912;28;20556;-74
2021/03/05 06:24:58;;;;;;;13.05;4.00;;;;;;;;;;5055920;28;20177;-74
2021/03/05 06:27:27;;;;;;;5.82;4.22;;;;;;;;;;5068121;28;20199;-74
2021/03/05 06:29:53;;;;;;;4.75;4.20;;;;;;;;;;5063272;28;20180;-74
2021/03/05 06:32:20;;;;;;;6.10;3.60;;;;;;;;;;5055789;28;20638;-74
2021/03/05 06:34:49;;;;;;;8.05;3.50;;;;;;;;;;5054563;28;20185;-74
2021/03/05 06:37:20;;;;;;;10.82;4.40;;;;;;;;;;5040097;28;20170;-75
2021/03/05 06:39:56;;;;;;;7.45;4.57;;;;;;;;;;5063034;28;20676;-74
2021/03/05 06:42:22;;;;;;;16.70;4.25;;;;;;;;;;5055056;28;20259;-74
2021/03/05 06:44:48;;;;;;;8.82;4.10;;;;;;;;;;5054712;28;20176;-74
2021/03/05 06:47:15;;;;;;;5.55;4.65;;;;;;;;;;5053152;28;20208;-73
2021/03/05 06:49:42;;;;;;;7.32;4.10;;;;;;;;;;5050772;28;20177;-74
2021/03/05 06:52:08;;;;;;;8.27;4.93;;;;;;;;;;5058980;28;20188;-73
2021/03/05 06:54:36;;;;;;;6.38;3.90;;;;;;;;;;5054437;28;20189;-74
2021/03/05 06:57:03;;;;;;;6.05;4.50;;;;;;;;;;5054454;28;20181;-74
2021/03/05 06:59:39;;;;;;;6.00;4.30;;;;;;;;;;5055147;28;20177;-74
2021/03/05 07:02:06;;;;;;;6.13;4.10;;;;;;;;;;5054320;28;20252;-74
2021/03/05 07:04:36;;;;;;;7.38;4.50;;;;;;;;;;5054129;28;20243;-74
2021/03/05 07:07:06;;;;;;;16.33;6.93;;;;;;;;;;5053589;28;20215;-74
2021/03/05 07:09:34;;;;;;;11.57;6.25;;;;;;;;;;5054156;28;20169;-74
2021/03/05 07:12:01;;;;;;;25.52;9.00;;;;;;;;;;5052998;28;20184;-75
2021/03/05 07:14:31;;;;;;;10.27;5.47;;;;;;;;;;5054780;28;20276;-74
2021/03/05 07:16:57;;;;;;;12.98;6.20;;;;;;;;;;5053382;28;20176;-75
2021/03/05 07:19:24;;;;;;;27.15;10.15;;;;;;;;;;5052439;28;20248;-75
2021/03/05 07:21:51;;;;;;;11.85;7.35;;;;;;;;;;5069550;28;20176;-75
2021/03/05 07:24:18;;;;;;;16.58;6.45;;;;;;;;;;5068707;28;20553;-74
2021/03/05 07:26:54;;;;;;;16.20;5.32;;;;;;;;;;5071392;28;20200;-75
2021/03/05 07:29:21;;;;;;;19.17;9.30;;;;;;;;;;5065829;28;20256;-75
2021/03/05 07:31:50;;;;;;;13.63;8.05;;;;;;;;;;5054581;28;20177;-74
2021/03/05 07:34:17;;;;;;;7.97;5.35;;;;;;;;;;5054341;28;20192;-75
2021/03/05 07:36:47;;;;;;;12.98;5.63;;;;;;;;;;5051411;28;20265;-75
2021/03/05 07:39:19;;;;;;;12.45;5.93;;;;;;;;;;5051199;28;20188;-75
2021/03/05 07:41:45;;;;;;;7.38;4.30;;;;;;;;;;5042688;28;20196;-75
2021/03/05 07:44:12;;;;;;;9.55;5.25;;;;;;;;;;5050148;28;20565;-75
2021/03/05 07:46:39;;;;;;;6.30;4.75;;;;;;;;;;5050154;28;20203;-75
2021/03/05 07:49:05;;;;;;;8.80;5.25;;;;;;;;;;5044613;28;20173;-74
2021/03/05 07:51:33;;;;;;;7.55;5.20;;;;;;;;;;5042690;28;20178;-74
2021/03/05 07:53:59;;;;;;;16.25;7.28;;;;;;;;;;5042933;28;20197;-74
2021/03/05 07:56:40;;;;;;;8.50;5.97;;;;;;;;;;5048677;28;20180;-74
2021/03/05 07:59:07;;;;;;;8.10;6.60;;;;;;;;;;5063323;28;20176;-75
2021/03/05 08:01:51;;;;;;;7.55;4.57;;;;;;;;;;5059116;28;20184;-75
2021/03/05 08:04:18;;;;;;;19.73;11.68;;;;;;;;;;5069607;28;20227;-74
2021/03/05 08:06:44;;;;;;;11.25;4.90;;;;;;;;;;5064504;28;20831;-74
2021/03/05 08:09:17;;;;;;;21.00;7.70;;;;;;;;;;5044736;28;20187;-75
2021/03/05 08:11:43;;;;;;;32.17;15.27;;;;;;;;;;5062221;28;20184;-75
2021/03/05 08:14:22;;;;;;;8.38;4.45;;;;;;;;;;5045810;28;20739;-76
2021/03/05 08:16:52;;;;;;;6.30;3.65;;;;;;;;;;5034860;28;20184;-74
2021/03/05 08:19:18;;;;;;;6.05;3.20;;;;;;;;;;5056806;28;20684;-74
2021/03/05 08:21:57;;;;;;;11.50;6.68;;;;;;;;;;5056012;28;20191;-75
2021/03/05 08:24:30;;;;;;;18.33;9.20;;;;;;;;;;5050422;28;20209;-75
2021/03/05 08:27:10;;;;;;;8.32;3.60;;;;;;;;;;5059541;28;20684;-74
2021/03/05 08:30:00;;;;;;;12.18;6.20;;;;;;;;;;5049817;28;20181;-74
2021/03/05 08:32:38;;;;;;;4.60;3.47;;;;;;;;;;5038255;28;20242;-76
2021/03/05 08:35:13;;;;;;;32.40;16.48;;;;;;;;;;5069260;28;20530;-75
2021/03/05 08:37:43;;;;;;;34.33;19.40;;;;;;;;;;5049492;28;20243;-75
2021/03/05 08:40:21;;;;;;;14.00;8.23;;;;;;;;;;5037773;28;20189;-75
2021/03/05 08:42:47;;;;;;;9.05;5.55;;;;;;;;;;5057196;28;20200;-76
2021/03/05 08:45:15;;;;;;;6.05;3.53;;;;;;;;;;5047316;28;20197;-75
2021/03/05 08:47:42;;;;;;;15.48;8.18;;;;;;;;;;5069366;28;20509;-74
2021/03/05 08:50:09;;;;;;;10.80;7.47;;;;;;;;;;5048598;28;20193;-73
2021/03/05 08:52:35;;;;;;;6.78;3.75;;;;;;;;;;5048440;28;20197;-75
2021/03/05 08:55:05;;;;;;;11.40;5.78;;;;;;;;;;5052256;28;20192;-76
2021/03/05 08:57:58;;;;;;;3.97;2.58;;;;;;;;;;5049085;28;20188;-75
2021/03/05 09:00:30;;;;;;;6.00;2.40;;;;;;;;;;5042498;28;20199;-76
2021/03/05 09:03:04;;;;;;;3.35;2.42;;;;;;;;;;5057591;28;20766;-75
2021/03/05 09:05:34;;;;;;;8.10;2.85;;;;;;;;;;5055025;28;20197;-74
2021/03/05 09:08:01;;;;;;;4.90;3.10;;;;;;;;;;5060952;28;20219;-75
2021/03/05 09:10:39;;;;;;;7.07;2.83;;;;;;;;;;5057194;28;20181;-75
2021/03/05 09:13:05;;;;;;;3.83;2.20;;;;;;;;;;5048602;28;20330;-75
2021/03/05 09:15:47;;;;;;;8.32;2.53;;;;;;;;;;5048149;28;20185;-75
2021/03/05 09:18:14;;;;;;;2.63;1.73;;;;;;;;;;5049141;28;20209;-75
2021/03/05 09:20:45;;;;;;;2.90;2.17;;;;;;;;;;5048099;28;20193;-75
2021/03/05 09:23:32;;;;;;;3.85;2.08;;;;;;;;;;5044874;28;20251;-75
2021/03/05 09:26:03;;;;;;;5.45;1.90;;;;;;;;;;5041353;28;20185;-75
2021/03/05 09:28:49;;;;;;;5.07;2.42;;;;;;;;;;5048251;28;20208;-75
2021/03/05 09:31:17;;;;;;;3.53;1.85;;;;;;;;;;5048946;28;20226;-75
2021/03/05 09:33:44;;;;;;;4.55;2.63;;;;;;;;;;5048359;28;20546;-76
2021/03/05 09:36:20;;;;;;;3.90;1.67;;;;;;;;;;5048381;28;20184;-75
2021/03/05 09:38:47;;;;;;;3.22;1.63;;;;;;;;;;5052725;28;20184;-75
2021/03/05 09:41:21;;;;;;;3.45;1.90;;;;;;;;;;5052017;28;20165;-75
2021/03/05 09:43:57;;;;;;;2.45;1.70;;;;;;;;;;5039785;28;20219;-75
2021/03/05 09:46:24;;;;;;;4.00;1.83;;;;;;;;;;5048679;28;20176;-76
2021/03/05 09:48:51;;;;;;;3.70;1.75;;;;;;;;;;5052344;28;20183;-76
2021/03/05 09:51:18;;;;;;;2.50;1.90;;;;;;;;;;5052353;28;20173;-76
2021/03/05 09:53:54;;;;;;;4.00;1.55;;;;;;;;;;5051999;28;20191;-76
2021/03/05 09:56:25;;;;;;;3.30;1.80;;;;;;;;;;5054812;28;20185;-76
2021/03/05 09:58:58;;;;;;;3.55;3.22;;;;;;;;;;5050787;28;20191;-75
2021/03/05 10:01:24;;;;;;;2.33;1.63;;;;;;;;;;5050923;28;20519;-76
2021/03/05 10:03:51;;;;;;;2.37;1.57;;;;;;;;;;5062328;28;20289;-77
2021/03/05 10:06:17;;;;;;;2.70;1.90;;;;;;;;;;5050476;28;20562;-77
2021/03/05 10:08:44;;;;;;;2.50;1.60;;;;;;;;;;5050453;28;20470;-75
2021/03/05 10:11:11;;;;;;;2.83;1.80;;;;;;;;;;5046310;28;20457;-76
2021/03/05 10:13:46;;;;;;;3.03;1.70;;;;;;;;;;5048075;28;20956;-76
2021/03/05 10:16:13;;;;;;;3.17;1.97;;;;;;;;;;5050919;28;20468;-75
2021/03/05 10:18:39;;;;;;;3.30;1.83;;;;;;;;;;5051493;28;20415;-75
2021/03/05 10:21:09;;;;;;;3.70;1.67;;;;;;;;;;5051697;28;20423;-74
2021/03/05 10:23:36;;;;;;;3.80;1.77;;;;;;;;;;5046350;28;20513;-75
2021/03/05 10:26:02;;;;;;;3.37;1.70;;;;;;;;;;5050209;28;20419;-75
2021/03/05 10:28:28;;;;;;;2.30;1.40;;;;;;;;;;5051586;28;20459;-74
2021/03/05 10:30:54;;;;;;;4.10;1.70;;;;;;;;;;5051872;28;20739;-76
2021/03/05 10:33:50;;;;;;;2.93;1.40;;;;;;;;;;5050359;28;20469;-75
2021/03/05 10:36:16;;;;;;;2.97;1.27;;;;;;;;;;5051266;28;20433;-74
2021/03/05 10:38:43;;;;;;;1.90;1.10;;;;;;;;;;5050818;28;20416;-76
2021/03/05 10:41:09;;;;;;;2.10;1.17;;;;;;;;;;5052479;28;20414;-75
2021/03/05 10:43:35;;;;;;;3.70;1.30;;;;;;;;;;5049873;28;20970;-74
2021/03/05 10:46:02;;;;;;;2.23;1.40;;;;;;;;;;5042196;28;20499;-76
2021/03/05 10:48:28;;;;;;;2.27;1.50;;;;;;;;;;5048267;28;20583;-74
2021/03/05 10:50:54;;;;;;;3.50;1.50;;;;;;;;;;5051626;28;20411;-74
2021/03/05 10:53:20;;;;;;;2.47;1.50;;;;;;;;;;5050343;28;20435;-73
2021/03/05 10:55:46;;;;;;;2.53;1.70;;;;;;;;;;5051544;28;20412;-76
2021/03/05 10:58:12;;;;;;;2.40;1.40;;;;;;;;;;5051255;28;20441;-75
2021/03/05 11:00:39;;;;;;;2.83;1.10;;;;;;;;;;5050590;28;20434;-76
2021/03/05 11:03:05;;;;;;;3.00;1.37;;;;;;;;;;5050377;28;20435;-75
2021/03/05 11:05:31;;;;;;;2.63;1.30;;;;;;;;;;5050593;28;20447;-76
2021/03/05 11:07:57;;;;;;;2.30;1.30;;;;;;;;;;5049630;28;20995;-76
2021/03/05 11:10:23;;;;;;;3.27;1.23;;;;;;;;;;5053475;28;20423;-77
2021/03/05 11:12:49;;;;;;;2.37;1.40;;;;;;;;;;5049921;28;21259;-74
2021/03/05 11:15:16;;;;;;;2.70;1.40;;;;;;;;;;5047681;28;20467;-75
2021/03/05 11:17:43;;;;;;;2.10;1.30;;;;;;;;;;5050934;28;20451;-75
2021/03/05 11:20:09;;;;;;;2.13;1.23;;;;;;;;;;5050354;28;20515;-76
2021/03/05 11:22:36;;;;;;;2.53;1.30;;;;;;;;;;5052152;28;20447;-77
2021/03/05 11:25:02;;;;;;;3.70;1.70;;;;;;;;;;5050589;28;20423;-74
2021/03/05 11:27:28;;;;;;;2.50;1.37;;;;;;;;;;5042440;28;20486;-76
2021/03/05 11:29:54;;;;;;;2.73;1.20;;;;;;;;;;5048338;28;20431;-75
2021/03/05 11:32:20;;;;;;;2.80;1.70;;;;;;;;;;5048598;28;20433;-74
2021/03/05 11:34:46;;;;;;;3.00;1.27;;;;;;;;;;5050307;28;20410;-74
2021/03/05 11:37:12;;;;;;;2.47;1.50;;;;;;;;;;5040480;28;20425;-75
2021/03/05 11:39:38;;;;;;;2.50;1.10;;;;;;;;;;5050382;28;20900;-75
2021/03/05 11:42:04;;;;;;;2.30;1.70;;;;;;;;;;5044224;28;20434;-76
2021/03/05 11:44:30;;;;;;;3.23;1.50;;;;;;;;;;5049136;28;20450;-75
2021/03/05 11:46:56;;;;;;;1.90;1.10;;;;;;;;;;5051308;28;20581;-76
2021/03/05 11:49:22;;;;;;;2.37;1.40;;;;;;;;;;5050297;28;20419;-77
2021/03/05 11:51:48;;;;;;;2.30;1.30;;;;;;;;;;5055816;28;20425;-76
2021/03/05 11:54:14;;;;;;;1.83;1.20;;;;;;;;;;5053380;28;20446;-76
2021/03/05 11:56:40;;;;;;;2.10;1.10;;;;;;;;;;5053159;28;20423;-75
2021/03/05 11:59:06;;;;;;;4.37;1.10;;;;;;;;;;5051011;28;20737;-76
2021/03/05 12:01:32;;;;;;;2.67;1.10;;;;;;;;;;5049571;28;20430;-76
2021/03/05 12:03:58;;;;;;;2.10;1.30;;;;;;;;;;5056835;28;20533;-76
2021/03/05 12:06:27;;;;;;;3.90;1.20;;;;;;;;;;5051649;28;20439;-77
2021/03/05 12:08:54;;;;;;;2.37;1.40;;;;;;;;;;5050213;28;20438;-74
2021/03/05 12:11:20;;;;;;;2.30;1.33;;;;;;;;;;5059249;28;20417;-76
2021/03/05 12:13:46;;;;;;;1.90;1.10;;;;;;;;;;5047303;28;20588;-75
2021/03/05 12:16:12;;;;;;;2.27;1.17;;;;;;;;;;5052004;28;20773;-77
2021/03/05 12:18:38;;;;;;;2.30;1.13;;;;;;;;;;5052597;28;20912;-77
2021/03/05 12:21:04;;;;;;;2.73;1.20;;;;;;;;;;5058710;28;20414;-75
2021/03/05 12:23:30;;;;;;;2.97;1.20;;;;;;;;;;5048371;28;20470;-77
2021/03/05 12:25:56;;;;;;;2.20;1.40;;;;;;;;;;5048092;28;20442;-77
2021/03/05 12:28:22;;;;;;;2.00;1.17;;;;;;;;;;5055060;28;20475;-75
2021/03/05 12:30:48;;;;;;;2.20;1.57;;;;;;;;;;5045418;28;20424;-77
2021/03/05 12:33:15;;;;;;;5.33;1.80;;;;;;;;;;5048410;28;20450;-76
2021/03/05 12:35:41;;;;;;;3.37;1.50;;;;;;;;;;5049316;28;20416;-77
2021/03/05 12:38:07;;;;;;;2.07;1.20;;;;;;;;;;5044734;28;20441;-76
2021/03/05 12:40:33;;;;;;;4.37;1.60;;;;;;;;;;5047827;28;20431;-77
2021/03/05 12:42:59;;;;;;;2.30;1.40;;;;;;;;;;5046192;28;20458;-77
2021/03/05 12:45:25;;;;;;;1.90;1.10;;;;;;;;;;5047193;28;20433;-75
2021/03/05 12:47:51;;;;;;;2.73;1.50;;;;;;;;;;5050962;28;20455;-75
2021/03/05 12:50:17;;;;;;;1.90;1.20;;;;;;;;;;5049200;28;20412;-75
2021/03/05 12:52:43;;;;;;;4.97;1.80;;;;;;;;;;5048495;28;20812;-77
2021/03/05 12:55:10;;;;;;;2.20;1.30;;;;;;;;;;5046403;28;20430;-76
2021/03/05 12:57:36;;;;;;;2.30;1.47;;;;;;;;;;5063068;28;20781;-76
2021/03/05 13:00:03;;;;;;;2.90;1.50;;;;;;;;;;5048303;28;20435;-75
2021/03/05 13:02:29;;;;;;;2.17;1.50;;;;;;;;;;5046141;28;20503;-75
2021/03/05 13:04:55;;;;;;;3.07;1.40;;;;;;;;;;5048721;28;20438;-76
2021/03/05 13:07:21;;;;;;;2.73;1.60;;;;;;;;;;5049089;28;20478;-76
2021/03/05 13:09:48;;;;;;;2.10;1.50;;;;;;;;;;5055362;28;20421;-75
2021/03/05 13:12:14;;;;;;;2.73;1.70;;;;;;;;;;5052295;28;20446;-77
2021/03/05 13:14:40;;;;;;;5.73;1.60;;;;;;;;;;5051346;28;20454;-76
2021/03/05 13:17:06;;;;;;;2.53;1.80;;;;;;;;;;5051897;28;20417;-76
2021/03/05 13:19:32;;;;;;;3.23;1.53;;;;;;;;;;5047713;28;20452;-76
2021/03/05 13:21:58;;;;;;;2.40;1.70;;;;;;;;;;5056597;28;20418;-76
2021/03/05 13:24:24;;;;;;;2.40;1.70;;;;;;;;;;5053370;28;20459;-75
2021/03/05 13:26:51;;;;;;;2.77;2.17;;;;;;;;;;5056468;28;20809;-75
2021/03/05 13:29:17;;;;;;;4.10;1.80;;;;;;;;;;5056668;28;20506;-76
2021/03/05 13:31:43;;;;;;;2.47;1.90;;;;;;;;;;5048060;28;20427;-76
2021/03/05 13:34:09;;;;;;;3.77;2.00;;;;;;;;;;5058849;28;20430;-77
2021/03/05 13:36:35;;;;;;;2.30;1.50;;;;;;;;;;5056036;28;20802;-76
2021/03/05 13:39:01;;;;;;;2.17;1.57;;;;;;;;;;5059354;28;20470;-76
2021/03/05 13:41:27;;;;;;;2.77;1.50;;;;;;;;;;5046920;28;20433;-75
2021/03/05 13:43:53;;;;;;;2.27;1.53;;;;;;;;;;5052031;28;20439;-76
2021/03/05 13:46:19;;;;;;;3.10;1.50;;;;;;;;;;5047371;28;20422;-76
2021/03/05 13:48:45;;;;;;;2.13;1.47;;;;;;;;;;5046310;28;20798;-75
2021/03/05 13:51:11;;;;;;;2.80;1.87;;;;;;;;;;5067596;28;20406;-75
2021/03/05 13:53:38;;;;;;;2.43;1.50;;;;;;;;;;5060934;28;20454;-77
2021/03/05 13:56:04;;;;;;;2.20;1.50;;;;;;;;;;5068483;28;20425;-76
2021/03/05 13:58:30;;;;;;;2.20;1.37;;;;;;;;;;5051572;28;20431;-78
2021/03/05 14:00:57;;;;;;;2.13;1.40;;;;;;;;;;5049129;28;20447;-76
2021/03/05 14:03:23;;;;;;;2.30;1.50;;;;;;;;;;5046528;28;20447;-76
2021/03/05 14:05:49;;;;;;;2.57;1.67;;;;;;;;;;5050002;28;20519;-76
2021/03/05 14:08:15;;;;;;;2.23;1.40;;;;;;;;;;5051989;28;21049;-76
2021/03/05 14:10:41;;;;;;;2.20;1.20;;;;;;;;;;5051676;28;20871;-76
2021/03/05 14:13:07;;;;;;;2.47;1.27;;;;;;;;;;5051587;28;20531;-75
2021/03/05 14:15:33;;;;;;;2.53;1.60;;;;;;;;;;5051400;28;20509;-77
2021/03/05 14:17:59;;;;;;;2.03;1.33;;;;;;;;;;5050790;28;20427;-77
2021/03/05 14:20:25;;;;;;;2.77;1.70;;;;;;;;;;5050822;28;20426;-76
2021/03/05 14:22:51;;;;;;;3.70;1.53;;;;;;;;;;5051462;28;20445;-75
2021/03/05 14:25:17;;;;;;;2.50;1.50;;;;;;;;;;5051587;28;20449;-76
2021/03/05 14:27:43;;;;;;;2.60;1.60;;;;;;;;;;5052145;28;20464;-75
2021/03/05 14:30:10;;;;;;;2.80;1.50;;;;;;;;;;5048375;28;20418;-75
2021/03/05 14:32:36;;;;;;;2.25;1.40;;;;;;;;;;5053465;28;20948;-76
2021/03/05 14:35:02;;;;;;;3.22;1.60;;;;;;;;;;5049552;28;20569;-76
2021/03/05 14:37:28;;;;;;;3.75;1.80;;;;;;;;;;5047751;28;20298;-75
2021/03/05 14:39:54;;;;;;;2.60;1.50;;;;;;;;;;5067231;28;20545;-74
2021/03/05 14:42:21;;;;;;;2.80;1.50;;;;;;;;;;5068245;28;20187;-74
2021/03/05 14:44:47;;;;;;;5.93;2.30;;;;;;;;;;5055222;28;20279;-75